Time;durP1;ratioP1;P1;durP2;ratioP2;P2;SDS_P1;SDS_P2;PMS_P1;PMS_P2;Temp;Humidity;BMP_temperature;BMP_pressure;BME280_temperature;BME280_humidity;BME280_pressure;Samples;Min_cycle;Max_cycle;Signal;HPM_P1;HPM_P2
2023/06/11 00:02:05;;;;;;;11.07;8.07;;;21.20;61.10;;;;;;4983159;28;20030;-85
2023/06/11 00:04:34;;;;;;;9.73;8.65;;;21.10;63.00;;;;;;4981600;28;20088;-85
2023/06/11 00:07:00;;;;;;;11.27;8.77;;;21.00;62.50;;;;;;4965941;28;20034;-85
2023/06/11 00:09:26;;;;;;;8.95;7.97;;;20.80;64.10;;;;;;4990323;28;20034;-84
2023/06/11 00:11:53;;;;;;;10.18;8.75;;;20.80;64.70;;;;;;5003464;28;20057;-82
2023/06/11 00:14:19;;;;;;;12.43;8.57;;;20.70;62.80;;;;;;4973926;28;20034;-85
2023/06/11 00:16:45;;;;;;;12.13;8.75;;;20.60;63.30;;;;;;4967870;28;20117;-85
2023/06/11 00:19:12;;;;;;;9.63;8.70;;;20.40;66.70;;;;;;4986314;28;20482;-84
2023/06/11 00:21:43;;;;;;;9.52;8.63;;;20.40;69.00;;;;;;4975015;28;20038;-84
2023/06/11 00:24:11;;;;;;;9.60;8.57;;;20.40;71.60;;;;;;4998561;28;20550;-84
2023/06/11 00:26:40;;;;;;;9.98;7.95;;;20.30;67.20;;;;;;4967007;28;20572;-84
2023/06/11 00:29:06;;;;;;;10.23;8.52;;;20.30;68.20;;;;;;4957270;28;20030;-85
2023/06/11 00:31:31;;;;;;;13.75;8.50;;;20.20;67.70;;;;;;4983870;28;20026;-83
2023/06/11 00:33:57;;;;;;;10.27;8.65;;;20.10;67.20;;;;;;4979166;28;20504;-82
2023/06/11 00:36:26;;;;;;;9.25;8.43;;;20.20;67.40;;;;;;4989071;28;20045;-84
2023/06/11 00:38:53;;;;;;;9.27;8.40;;;20.20;66.40;;;;;;4980039;28;20039;-84
2023/06/11 00:41:18;;;;;;;10.55;9.55;;;20.20;67.60;;;;;;4956870;28;20478;-83
2023/06/11 00:43:44;;;;;;;12.40;8.77;;;20.10;69.80;;;;;;4960948;28;20042;-83
2023/06/11 00:46:10;;;;;;;10.93;9.82;;;20.00;69.50;;;;;;4954049;28;20046;-83
2023/06/11 00:48:37;;;;;;;12.50;9.13;;;20.00;68.10;;;;;;4993439;28;20038;-84
2023/06/11 00:51:03;;;;;;;12.15;8.70;;;20.00;70.30;;;;;;4991816;28;20065;-83
2023/06/11 00:53:28;;;;;;;10.75;8.57;;;19.90;69.00;;;;;;4984836;28;20033;-83
2023/06/11 00:55:54;;;;;;;10.70;8.15;;;20.00;70.20;;;;;;4963116;28;20026;-84
2023/06/11 00:58:21;;;;;;;11.65;9.50;;;19.90;69.80;;;;;;4978052;28;20038;-82
2023/06/11 01:00:49;;;;;;;10.18;8.85;;;19.90;67.80;;;;;;4973299;28;20038;-82
2023/06/11 01:03:17;;;;;;;9.85;8.80;;;19.90;69.00;;;;;;4970757;28;20034;-83
2023/06/11 01:05:49;;;;;;;9.18;8.38;;;19.80;73.40;;;;;;4970189;28;20129;-83
2023/06/11 01:08:17;;;;;;;9.85;8.57;;;19.60;71.30;;;;;;4966919;28;20097;-83
2023/06/11 01:10:44;;;;;;;10.60;9.48;;;19.70;68.10;;;;;;4972533;28;20038;-84
2023/06/11 01:13:09;;;;;;;14.52;9.68;;;19.60;73.50;;;;;;4975652;28;20045;-83
2023/06/11 01:15:35;;;;;;;9.38;8.40;;;19.70;70.30;;;;;;4969312;28;20026;-82
2023/06/11 01:18:19;;;;;;;12.27;9.07;;;19.60;68.30;;;;;;4996033;28;20026;-83
2023/06/11 01:20:59;;;;;;;10.27;8.75;;;19.60;72.10;;;;;;5003248;28;20041;-83
2023/06/11 01:23:41;;;;;;;14.77;8.80;;;19.60;72.00;;;;;;4967562;28;20544;-83
2023/06/11 01:26:16;;;;;;;10.43;9.38;;;19.50;69.30;;;;;;4954085;28;20086;-82
2023/06/11 01:28:44;;;;;;;10.57;9.57;;;19.40;69.20;;;;;;4987708;28;20045;-83
2023/06/11 01:31:15;;;;;;;11.35;10.20;;;19.30;69.70;;;;;;4963873;28;20026;-83
2023/06/11 01:33:42;;;;;;;14.25;9.95;;;19.10;70.80;;;;;;4983470;28;20029;-82
2023/06/11 01:36:10;;;;;;;10.20;9.18;;;19.30;69.70;;;;;;4965543;28;20684;-82
2023/06/11 01:38:41;;;;;;;11.60;9.98;;;19.30;68.30;;;;;;4963866;28;20034;-82
2023/06/11 01:41:08;;;;;;;10.85;9.75;;;19.30;69.10;;;;;;4975716;28;20034;-80
2023/06/11 01:43:34;;;;;;;12.70;9.55;;;19.20;71.60;;;;;;4967834;28;20078;-83
2023/06/11 01:46:00;;;;;;;14.05;9.23;;;19.20;71.00;;;;;;4963697;28;20030;-83
2023/06/11 01:48:26;;;;;;;11.00;9.82;;;19.10;71.10;;;;;;4946846;28;20506;-83
2023/06/11 01:50:51;;;;;;;12.20;9.25;;;19.10;75.30;;;;;;4964186;28;20030;-84
2023/06/11 01:53:18;;;;;;;10.40;9.50;;;19.10;71.70;;;;;;4975118;28;20058;-83
2023/06/11 01:55:44;;;;;;;10.80;9.32;;;19.10;73.20;;;;;;4976013;28;20132;-83
2023/06/11 01:58:10;;;;;;;12.65;9.30;;;19.00;71.00;;;;;;4990602;28;20117;-80
2023/06/11 02:00:36;;;;;;;11.30;9.48;;;19.00;74.30;;;;;;4990233;28;20481;-83
2023/06/11 02:03:05;;;;;;;10.93;9.40;;;19.00;72.20;;;;;;4954747;28;20036;-82
2023/06/11 02:05:31;;;;;;;10.48;9.55;;;18.90;74.10;;;;;;4977629;28;20046;-83
2023/06/11 02:07:56;;;;;;;12.88;10.13;;;18.90;74.50;;;;;;4965817;28;20549;-83
2023/06/11 02:10:22;;;;;;;10.57;9.57;;;18.80;73.20;;;;;;4966272;28;20034;-79
2023/06/11 02:12:47;;;;;;;11.88;9.43;;;18.70;75.20;;;;;;4951604;28;20030;-79
2023/06/11 02:15:13;;;;;;;11.23;9.95;;;18.60;72.80;;;;;;4951174;28;20034;-79
2023/06/11 02:17:38;;;;;;;11.02;9.73;;;18.60;76.10;;;;;;4971193;28;20038;-79
2023/06/11 02:20:07;;;;;;;10.60;9.50;;;18.70;74.60;;;;;;4956123;28;20113;-79
2023/06/11 02:22:33;;;;;;;11.07;9.95;;;18.60;74.90;;;;;;4973553;28;20398;-79
2023/06/11 02:24:59;;;;;;;11.30;9.32;;;18.50;75.50;;;;;;4961040;28;20034;-79
2023/06/11 02:27:25;;;;;;;13.25;11.38;;;18.60;79.00;;;;;;4980016;28;20380;-79
2023/06/11 02:29:50;;;;;;;12.35;10.40;;;18.50;78.00;;;;;;4970158;28;20162;-79
2023/06/11 02:32:16;;;;;;;12.10;10.20;;;18.30;74.60;;;;;;4964205;28;20046;-79
2023/06/11 02:34:41;;;;;;;10.85;9.63;;;18.40;78.20;;;;;;4972501;28;20093;-79
2023/06/11 02:37:08;;;;;;;9.82;8.82;;;18.30;79.00;;;;;;4961892;28;20065;-79
2023/06/11 02:39:33;;;;;;;15.65;10.20;;;18.40;75.70;;;;;;4973915;28;20551;-79
2023/06/11 02:41:59;;;;;;;10.35;9.23;;;18.40;73.80;;;;;;4986104;28;20128;-80
2023/06/11 02:44:25;;;;;;;12.20;9.85;;;18.40;72.20;;;;;;4973396;28;20121;-79
2023/06/11 02:46:50;;;;;;;10.82;9.25;;;18.30;72.20;;;;;;4964915;28;20030;-79
2023/06/11 02:49:16;;;;;;;11.43;10.23;;;18.20;75.00;;;;;;4962615;28;20038;-79
2023/06/11 02:51:41;;;;;;;12.23;10.05;;;18.20;78.40;;;;;;4973619;28;20026;-82
2023/06/11 02:54:07;;;;;;;11.45;9.30;;;18.10;73.80;;;;;;4987547;28;20031;-82
2023/06/11 02:56:33;;;;;;;11.90;10.77;;;18.10;78.00;;;;;;4960287;28;20026;-82
2023/06/11 02:58:58;;;;;;;11.93;10.73;;;18.10;77.10;;;;;;4977478;28;20574;-82
2023/06/11 03:01:24;;;;;;;11.82;10.57;;;18.20;76.40;;;;;;4969419;28;20548;-81
2023/06/11 03:03:49;;;;;;;12.45;11.35;;;18.20;73.80;;;;;;4965819;28;20045;-81
2023/06/11 03:06:15;;;;;;;11.52;10.40;;;18.10;80.20;;;;;;4949594;28;20034;-82
2023/06/11 03:08:40;;;;;;;11.50;10.50;;;18.10;74.50;;;;;;4955018;28;20034;-81
2023/06/11 03:11:06;;;;;;;13.43;10.48;;;18.10;74.60;;;;;;4947774;28;20544;-82
2023/06/11 03:13:32;;;;;;;11.18;10.05;;;18.00;76.10;;;;;;4957349;28;20129;-82
2023/06/11 03:15:57;;;;;;;13.27;10.45;;;18.00;74.00;;;;;;4960061;28;20064;-81
2023/06/11 03:18:23;;;;;;;11.75;10.48;;;17.90;77.40;;;;;;4971888;28;20125;-81
2023/06/11 03:20:48;;;;;;;11.70;10.55;;;17.90;77.60;;;;;;4975415;28;20026;-82
2023/06/11 03:23:17;;;;;;;11.80;10.70;;;17.90;77.40;;;;;;4986726;28;20409;-82
2023/06/11 03:25:43;;;;;;;10.48;9.52;;;17.80;77.70;;;;;;4952734;28;20040;-82
2023/06/11 03:28:08;;;;;;;12.75;10.48;;;17.70;74.70;;;;;;4957391;28;20038;-82
2023/06/11 03:30:34;;;;;;;16.13;11.05;;;17.70;77.70;;;;;;4979819;28;20108;-82
2023/06/11 03:32:59;;;;;;;11.30;10.10;;;17.70;77.10;;;;;;4959440;28;20080;-82
2023/06/11 03:35:25;;;;;;;13.90;10.35;;;17.70;76.10;;;;;;4976817;28;20525;-82
2023/06/11 03:37:50;;;;;;;10.93;9.73;;;17.70;78.70;;;;;;4969995;28;20446;-82
2023/06/11 03:40:16;;;;;;;11.80;10.60;;;17.60;76.80;;;;;;4993474;28;20448;-84
2023/06/11 03:42:41;;;;;;;11.50;10.40;;;17.60;75.50;;;;;;4971376;28;20034;-82
2023/06/11 03:45:07;;;;;;;18.40;10.85;;;17.60;76.20;;;;;;4972197;28;20040;-82
2023/06/11 03:47:33;;;;;;;10.82;9.73;;;17.60;76.30;;;;;;4966343;28;20037;-81
2023/06/11 03:49:58;;;;;;;12.07;10.27;;;17.50;78.60;;;;;;4959912;28;20117;-81
2023/06/11 03:52:24;;;;;;;11.60;9.85;;;17.50;77.20;;;;;;4962218;28;20080;-81
2023/06/11 03:54:49;;;;;;;11.43;10.23;;;17.50;78.00;;;;;;4978489;28;20034;-81
2023/06/11 03:57:17;;;;;;;11.23;9.80;;;17.50;78.00;;;;;;4976028;28;20026;-82
2023/06/11 03:59:43;;;;;;;11.38;10.25;;;17.70;79.60;;;;;;4964017;28;20125;-82
2023/06/11 04:02:08;;;;;;;16.35;10.00;;;17.80;79.40;;;;;;4989449;28;20431;-82
2023/06/11 04:04:34;;;;;;;11.30;10.30;;;17.90;77.40;;;;;;4952002;28;20034;-82
2023/06/11 04:07:00;;;;;;;11.40;10.00;;;17.80;77.40;;;;;;4961819;28;20458;-81
2023/06/11 04:09:25;;;;;;;10.60;9.50;;;17.90;78.10;;;;;;4990327;28;20052;-81
2023/06/11 04:11:51;;;;;;;11.55;10.32;;;18.00;78.90;;;;;;4995842;28;20363;-82
2023/06/11 04:14:16;;;;;;;11.68;10.27;;;18.10;78.10;;;;;;4991831;28;20025;-81
2023/06/11 04:16:42;;;;;;;10.98;9.88;;;18.30;77.30;;;;;;4976215;28;20034;-82
2023/06/11 04:19:07;;;;;;;11.82;10.60;;;18.50;77.80;;;;;;4970380;28;20026;-82
2023/06/11 04:21:33;;;;;;;11.88;10.20;;;18.60;76.40;;;;;;4972274;28;20489;-82
2023/06/11 04:23:59;;;;;;;11.73;10.18;;;18.80;76.20;;;;;;4989485;28;20018;-81
2023/06/11 04:26:25;;;;;;;10.48;9.40;;;18.90;75.70;;;;;;4973723;28;20038;-82
2023/06/11 04:28:52;;;;;;;11.18;10.07;;;19.00;75.20;;;;;;4994240;28;20033;-82
2023/06/11 04:31:18;;;;;;;10.43;9.43;;;19.20;75.50;;;;;;4974380;28;20027;-82
2023/06/11 04:33:46;;;;;;;10.30;9.30;;;19.40;74.60;;;;;;4957162;28;20045;-82
2023/06/11 04:36:11;;;;;;;11.90;9.70;;;19.40;74.40;;;;;;4968925;28;20038;-82
2023/06/11 04:38:37;;;;;;;10.38;9.27;;;19.60;74.70;;;;;;4970772;28;20046;-82
2023/06/11 04:41:05;;;;;;;11.77;9.40;;;19.80;73.80;;;;;;4971410;28;20057;-82
2023/06/11 04:43:33;;;;;;;10.60;9.50;;;20.00;74.20;;;;;;4965362;28;20109;-82
2023/06/11 04:45:59;;;;;;;10.77;9.07;;;20.10;73.90;;;;;;4983973;28;20878;-82
2023/06/11 04:48:27;;;;;;;12.65;9.18;;;20.30;73.70;;;;;;4990183;28;20521;-81
2023/06/11 04:50:53;;;;;;;9.52;8.43;;;20.50;74.50;;;;;;4964221;28;20033;-83
2023/06/11 04:53:22;;;;;;;9.98;9.02;;;20.80;74.90;;;;;;4986438;28;20072;-83
2023/06/11 04:55:51;;;;;;;10.73;9.05;;;20.90;75.20;;;;;;4963371;28;20029;-83
2023/06/11 04:58:21;;;;;;;9.75;8.77;;;21.10;75.20;;;;;;4960182;28;20030;-82
2023/06/11 05:00:47;;;;;;;9.00;8.20;;;21.30;75.20;;;;;;4973653;28;20050;-82
2023/06/11 05:03:18;;;;;;;12.82;8.65;;;21.50;74.10;;;;;;4972016;28;20034;-82
2023/06/11 05:05:51;;;;;;;9.07;8.27;;;21.70;73.70;;;;;;4944368;28;20043;-83
2023/06/11 05:08:21;;;;;;;8.05;7.35;;;22.00;73.20;;;;;;4976098;28;20034;-84
2023/06/11 05:10:47;;;;;;;8.98;8.13;;;22.20;73.20;;;;;;4941968;28;20030;-82
2023/06/11 05:13:12;;;;;;;9.68;8.40;;;22.40;73.30;;;;;;4997089;28;20034;-82
2023/06/11 05:15:38;;;;;;;9.38;8.48;;;22.60;73.80;;;;;;4991800;28;20034;-82
2023/06/11 05:18:04;;;;;;;9.05;8.02;;;22.80;73.90;;;;;;4960075;28;20096;-83
2023/06/11 05:20:29;;;;;;;9.32;7.90;;;23.10;74.30;;;;;;4971399;28;20160;-83
2023/06/11 05:22:59;;;;;;;8.82;7.93;;;23.40;73.70;;;;;;4990841;28;20042;-82
2023/06/11 05:25:28;;;;;;;8.60;7.72;;;23.60;73.60;;;;;;4971491;28;20647;-83
2023/06/11 05:27:55;;;;;;;11.52;8.18;;;23.80;73.00;;;;;;4953827;28;20394;-82
2023/06/11 05:30:25;;;;;;;13.20;8.45;;;24.00;72.80;;;;;;4978524;28;20126;-83
2023/06/11 05:32:51;;;;;;;9.15;7.35;;;24.20;71.60;;;;;;4964110;28;20910;-82
2023/06/11 05:35:17;;;;;;;10.02;8.05;;;24.40;71.70;;;;;;4973587;28;20038;-81
2023/06/11 05:37:43;;;;;;;9.15;7.95;;;24.60;71.90;;;;;;4984044;28;20061;-82
2023/06/11 05:40:11;;;;;;;11.90;7.50;;;24.90;71.50;;;;;;4990831;28;20120;-81
2023/06/11 05:42:36;;;;;;;9.02;8.13;;;25.10;71.20;;;;;;4976129;28;20029;-80
2023/06/11 05:45:03;;;;;;;7.97;7.18;;;25.30;70.80;;;;;;4987402;28;20037;-80
2023/06/11 05:47:28;;;;;;;8.75;7.95;;;25.50;70.60;;;;;;4991857;28;20045;-82
2023/06/11 05:49:54;;;;;;;8.23;7.43;;;25.70;70.00;;;;;;4993309;28;20048;-83
2023/06/11 05:52:19;;;;;;;12.57;7.60;;;26.00;69.70;;;;;;4974916;28;20041;-82
2023/06/11 05:54:45;;;;;;;9.32;7.53;;;26.20;69.40;;;;;;4978916;28;20113;-82
2023/06/11 05:57:20;;;;;;;10.52;7.28;;;26.40;68.80;;;;;;4984528;28;20038;-82
2023/06/11 05:59:46;;;;;;;14.90;7.45;;;26.50;68.40;;;;;;4978423;28;20044;-82
2023/06/11 06:02:13;;;;;;;8.15;7.32;;;26.70;68.10;;;;;;4979466;28;20038;-82
2023/06/11 06:04:38;;;;;;;8.15;7.45;;;27.00;67.50;;;;;;4979988;28;20160;-81
2023/06/11 06:07:04;;;;;;;11.18;6.90;;;27.20;67.40;;;;;;4996562;28;20657;-84
2023/06/11 06:09:30;;;;;;;7.88;6.85;;;27.40;67.10;;;;;;4978239;28;20045;-83
2023/06/11 06:11:55;;;;;;;10.18;7.40;;;27.50;67.20;;;;;;4969608;28;20150;-83
2023/06/11 06:14:21;;;;;;;9.02;7.05;;;27.80;66.80;;;;;;4962806;28;20125;-83
2023/06/11 06:16:46;;;;;;;7.45;6.75;;;28.00;66.30;;;;;;4958035;28;20030;-83
2023/06/11 06:19:12;;;;;;;10.25;7.30;;;28.20;66.00;;;;;;4996878;28;20030;-82
2023/06/11 06:21:38;;;;;;;7.53;6.93;;;28.40;65.70;;;;;;4977282;28;20529;-83
2023/06/11 06:24:04;;;;;;;11.40;7.35;;;28.70;65.00;;;;;;4982844;28;20049;-84
2023/06/11 06:26:30;;;;;;;8.00;6.80;;;28.90;64.50;;;;;;4993558;28;20041;-83
2023/06/11 06:28:56;;;;;;;7.68;6.97;;;29.10;63.90;;;;;;4964713;28;20109;-83
2023/06/11 06:31:22;;;;;;;9.27;6.15;;;29.30;63.80;;;;;;4995813;28;20030;-82
2023/06/11 06:33:49;;;;;;;7.03;6.38;;;29.50;63.20;;;;;;4989610;28;20037;-82
2023/06/11 06:36:15;;;;;;;8.75;5.78;;;29.50;63.50;;;;;;4984718;28;20040;-82
2023/06/11 06:38:40;;;;;;;5.43;5.03;;;29.80;61.70;;;;;;4990462;28;20041;-83
2023/06/11 06:41:06;;;;;;;7.13;5.43;;;29.10;59.10;;;;;;4988409;28;20446;-83
2023/06/11 06:43:33;;;;;;;8.18;6.00;;;29.00;59.30;;;;;;4962108;28;20065;-83
2023/06/11 06:45:58;;;;;;;7.75;6.00;;;29.10;62.70;;;;;;4978093;28;20100;-83
2023/06/11 06:48:25;;;;;;;5.07;4.57;;;29.30;61.50;;;;;;5006917;28;20042;-83
2023/06/11 06:50:50;;;;;;;5.25;4.80;;;28.70;57.40;;;;;;4988064;28;20530;-84
2023/06/11 06:53:16;;;;;;;6.57;5.57;;;28.50;57.60;;;;;;4980698;28;20120;-83
2023/06/11 06:55:43;;;;;;;7.78;5.30;;;29.30;62.90;;;;;;4980511;28;20026;-84
2023/06/11 06:58:08;;;;;;;5.93;5.32;;;30.50;60.10;;;;;;4963266;28;20405;-84
2023/06/11 07:00:36;;;;;;;7.38;5.15;;;29.80;59.10;;;;;;4989898;28;20117;-84
2023/06/11 07:03:01;;;;;;;5.88;5.28;;;29.20;56.50;;;;;;4974655;28;20131;-85
2023/06/11 07:05:28;;;;;;;7.05;5.57;;;29.60;55.70;;;;;;4970527;28;20103;-85
2023/06/11 07:07:54;;;;;;;8.25;5.60;;;29.40;58.50;;;;;;4989564;28;20034;-84
2023/06/11 07:10:20;;;;;;;7.80;5.75;;;31.00;58.80;;;;;;4961833;28;20116;-82
2023/06/11 07:12:45;;;;;;;7.05;5.10;;;31.10;55.80;;;;;;4960212;28;20056;-85
2023/06/11 07:15:11;;;;;;;7.28;5.07;;;30.80;55.50;;;;;;4956373;28;20124;-85
2023/06/11 07:17:37;;;;;;;6.10;5.10;;;31.00;55.20;;;;;;4979818;28;20041;-83
2023/06/11 07:20:07;;;;;;;5.43;4.93;;;30.90;56.60;;;;;;5003437;28;20041;-84
2023/06/11 07:22:33;;;;;;;5.43;4.90;;;30.50;53.00;;;;;;5010570;28;20033;-83
2023/06/11 07:25:00;;;;;;;6.18;5.25;;;31.10;57.60;;;;;;4959815;28;20064;-85
2023/06/11 07:27:26;;;;;;;6.05;4.70;;;31.90;56.20;;;;;;4973863;28;20201;-85
2023/06/11 07:29:52;;;;;;;8.18;5.22;;;32.50;53.50;;;;;;4962264;28;20125;-85
2023/06/11 07:32:17;;;;;;;8.02;5.45;;;32.60;54.50;;;;;;4976332;28;20077;-85
2023/06/11 07:34:43;;;;;;;5.03;4.57;;;32.30;54.10;;;;;;4992632;28;20120;-86
2023/06/11 07:37:08;;;;;;;7.43;4.50;;;31.90;51.90;;;;;;4953626;28;20037;-86
2023/06/11 07:39:34;;;;;;;6.50;5.15;;;31.20;51.60;;;;;;4957512;28;20033;-86
2023/06/11 07:42:00;;;;;;;5.35;4.75;;;31.30;52.40;;;;;;4954541;28;20398;-85
2023/06/11 07:44:25;;;;;;;5.10;4.70;;;31.80;54.00;;;;;;4975983;28;20030;-86
2023/06/11 07:46:51;;;;;;;6.00;4.75;;;32.10;52.70;;;;;;4981486;28;20405;-85
2023/06/11 07:49:16;;;;;;;5.25;4.60;;;32.70;52.20;;;;;;4999197;28;20033;-85
2023/06/11 07:51:42;;;;;;;6.57;4.38;;;32.50;50.70;;;;;;4962499;28;20536;-85
2023/06/11 07:54:08;;;;;;;5.75;5.00;;;32.30;52.50;;;;;;4958403;28;20037;-85
2023/06/11 07:56:34;;;;;;;6.30;4.85;;;32.70;50.80;;;;;;4976164;28;20490;-86
2023/06/11 07:59:00;;;;;;;7.20;5.20;;;32.60;49.70;;;;;;4965720;28;20036;-84
2023/06/11 08:01:26;;;;;;;5.25;4.75;;;32.20;50.30;;;;;;4954205;28;21094;-84
2023/06/11 08:03:51;;;;;;;5.20;4.70;;;32.10;49.80;;;;;;4968160;28;20030;-85
2023/06/11 08:06:17;;;;;;;5.20;4.60;;;32.00;50.60;;;;;;4985456;28;20069;-86
2023/06/11 08:08:42;;;;;;;4.85;4.40;;;32.20;50.00;;;;;;4956651;28;20030;-85
2023/06/11 08:11:08;;;;;;;7.22;4.72;;;32.70;49.50;;;;;;4959976;28;20398;-83
2023/06/11 08:13:34;;;;;;;4.47;4.07;;;32.30;49.00;;;;;;4956960;28;20041;-84
2023/06/11 08:16:01;;;;;;;4.57;4.15;;;32.70;49.30;;;;;;4979780;28;20501;-86
2023/06/11 08:18:26;;;;;;;6.28;4.50;;;32.60;48.70;;;;;;4990248;28;20374;-84
2023/06/11 08:20:53;;;;;;;6.68;4.90;;;33.00;51.60;;;;;;4963793;28;20038;-85
2023/06/11 08:23:19;;;;;;;5.35;4.72;;;33.90;50.00;;;;;;4971176;28;20033;-85
2023/06/11 08:25:44;;;;;;;5.43;4.50;;;33.70;50.10;;;;;;4956834;28;20034;-86
2023/06/11 08:28:10;;;;;;;4.65;4.25;;;33.50;47.20;;;;;;4997786;28;20094;-86
2023/06/11 08:30:36;;;;;;;6.60;4.03;;;33.40;47.30;;;;;;4974024;28;20030;-84
2023/06/11 08:33:01;;;;;;;6.97;4.22;;;33.80;48.90;;;;;;5001199;28;20029;-86
2023/06/11 08:35:30;;;;;;;6.28;4.30;;;33.80;47.10;;;;;;5007090;28;20037;-84
2023/06/11 08:37:56;;;;;;;4.80;4.22;;;33.30;48.40;;;;;;4986568;28;20045;-83
2023/06/11 08:40:22;;;;;;;5.57;4.18;;;34.50;47.10;;;;;;4970418;28;20052;-84
2023/06/11 08:42:49;;;;;;;5.15;4.20;;;34.00;48.00;;;;;;4997627;28;20092;-83
2023/06/11 08:45:15;;;;;;;6.78;4.78;;;34.00;47.20;;;;;;5014247;28;20034;-84
2023/06/11 08:47:40;;;;;;;5.35;3.97;;;34.30;47.20;;;;;;4997075;28;20040;-82
2023/06/11 08:50:07;;;;;;;6.07;4.40;;;33.80;47.30;;;;;;4990496;28;20520;-82
2023/06/11 08:52:34;;;;;;;4.35;3.80;;;33.40;48.20;;;;;;4976079;28;20038;-84
2023/06/11 08:55:00;;;;;;;5.30;3.88;;;33.50;47.20;;;;;;4997058;28;20048;-85
2023/06/11 08:57:25;;;;;;;5.03;4.47;;;33.50;48.20;;;;;;4986799;28;20091;-84
2023/06/11 08:59:57;;;;;;;4.25;3.72;;;33.70;46.80;;;;;;4986452;28;20036;-83
2023/06/11 09:02:25;;;;;;;6.50;4.00;;;33.50;47.00;;;;;;4990473;28;20026;-83
2023/06/11 09:04:50;;;;;;;4.90;3.72;;;33.90;47.10;;;;;;4984820;28;20037;-82
2023/06/11 09:07:23;;;;;;;4.63;4.05;;;34.60;48.00;;;;;;4987072;28;20034;-83
2023/06/11 09:10:08;;;;;;;4.35;3.95;;;34.20;45.80;;;;;;4983983;28;20041;-84
2023/06/11 09:12:34;;;;;;;4.30;4.00;;;34.10;46.20;;;;;;5004944;28;20048;-83
2023/06/11 09:15:00;;;;;;;6.07;4.88;;;34.30;46.40;;;;;;4967354;28;20022;-82
2023/06/11 09:17:36;;;;;;;4.55;4.15;;;34.20;46.10;;;;;;5003270;28;20107;-82
2023/06/11 09:20:06;;;;;;;5.13;3.97;;;34.60;46.00;;;;;;5007332;28;20033;-82
2023/06/11 09:22:32;;;;;;;5.95;4.00;;;34.80;46.40;;;;;;4984182;28;20038;-82
2023/06/11 09:25:01;;;;;;;4.30;3.95;;;34.80;45.00;;;;;;4967528;28;20072;-84
2023/06/11 09:27:27;;;;;;;4.47;4.10;;;35.20;47.00;;;;;;4999644;28;20033;-81
2023/06/11 09:29:56;;;;;;;5.25;4.00;;;35.60;46.50;;;;;;4979480;28;20026;-82
2023/06/11 09:32:24;;;;;;;4.45;4.05;;;35.80;45.30;;;;;;5006621;28;20038;-82
2023/06/11 09:34:50;;;;;;;8.48;4.90;;;35.90;43.70;;;;;;4985010;28;20021;-82
2023/06/11 10:11:10;;;;;;;5.80;4.57;;;36.80;42.60;;;;;;5822871;22;6526466;-82
2023/06/11 10:13:37;;;;;;;7.38;4.95;;;36.70;40.60;;;;;;6076410;23;20014;-80
2023/06/11 10:16:06;;;;;;;10.30;4.85;;;37.30;41.00;;;;;;6069110;23;20038;-83
2023/06/11 10:18:32;;;;;;;4.68;4.28;;;37.40;40.70;;;;;;6027007;23;20014;-82
2023/06/11 10:21:02;;;;;;;5.07;4.50;;;37.00;39.30;;;;;;6066879;23;20002;-83
2023/06/11 10:26:05;;;;;;;5.10;4.70;;;37.60;39.80;;;;;;6171062;23;20031;-81
2023/06/11 10:28:41;;;;;;;5.82;4.40;;;37.40;39.30;;;;;;6137369;23;20010;-83
2023/06/11 10:31:07;;;;;;;5.63;4.30;;;37.50;38.70;;;;;;6109422;23;20009;-81
2023/06/11 10:33:43;;;;;;;5.05;4.65;;;37.60;39.60;;;;;;6141609;23;20065;-83
2023/06/11 10:36:09;;;;;;;6.10;4.40;;;37.60;38.80;;;;;;6121015;23;20419;-84
2023/06/11 10:38:38;;;;;;;5.25;4.72;;;37.90;39.80;;;;;;6097683;23;20018;-83
2023/06/11 10:41:03;;;;;;;5.63;4.15;;;38.20;40.00;;;;;;6072054;23;20006;-83
2023/06/11 10:43:30;;;;;;;5.38;4.20;;;37.80;40.20;;;;;;6108763;23;20010;-80
2023/06/11 10:46:11;;;;;;;8.80;4.03;;;37.90;38.10;;;;;;6135032;23;20053;-84
2023/06/11 10:48:41;;;;;;;4.00;3.60;;;38.30;38.80;;;;;;6130820;23;20463;-83
2023/06/11 10:51:12;;;;;;;4.53;4.07;;;38.10;37.30;;;;;;6129112;23;20089;-84
2023/06/11 10:53:39;;;;;;;5.57;5.07;;;37.70;37.90;;;;;;6116298;23;20068;-82
2023/06/11 10:56:06;;;;;;;4.65;4.25;;;38.40;38.10;;;;;;6115614;23;20445;-85
2023/06/11 10:58:31;;;;;;;5.25;4.72;;;38.60;38.50;;;;;;6114426;23;20045;-84
2023/06/11 11:00:58;;;;;;;4.70;4.30;;;38.70;39.10;;;;;;6100305;23;20014;-84
2023/06/11 11:03:26;;;;;;;4.90;4.50;;;38.70;39.30;;;;;;6107577;23;20067;-82
2023/06/11 11:05:52;;;;;;;5.18;4.10;;;38.40;36.60;;;;;;6102338;23;20039;-82
2023/06/11 11:08:18;;;;;;;5.47;4.25;;;37.90;37.10;;;;;;6096644;23;20014;-83
2023/06/11 11:10:44;;;;;;;4.72;4.25;;;38.40;37.40;;;;;;6098223;23;20017;-83
2023/06/11 11:13:10;;;;;;;10.20;4.32;;;38.40;38.30;;;;;;6123070;23;20017;-85
2023/06/11 11:15:36;;;;;;;9.23;4.60;;;38.30;37.40;;;;;;6126317;23;20022;-84
2023/06/11 11:18:01;;;;;;;4.47;3.97;;;38.80;37.40;;;;;;6095451;23;20033;-85
2023/06/11 11:20:27;;;;;;;6.63;4.30;;;39.10;37.00;;;;;;6120747;23;20017;-84
2023/06/11 11:22:54;;;;;;;4.78;4.30;;;39.30;37.10;;;;;;6095689;23;20037;-84
2023/06/11 11:25:24;;;;;;;7.45;4.40;;;39.20;36.50;;;;;;6117480;23;20029;-85
2023/06/11 11:27:50;;;;;;;4.50;4.10;;;39.30;37.10;;;;;;6117279;23;20613;-83
2023/06/11 11:30:17;;;;;;;5.43;4.65;;;39.40;37.20;;;;;;6120278;23;20018;-83
2023/06/11 11:32:42;;;;;;;5.93;4.13;;;39.60;36.10;;;;;;6121801;23;20392;-84
2023/06/11 11:35:08;;;;;;;4.38;4.03;;;39.40;35.20;;;;;;6123471;23;20060;-84
2023/06/11 11:37:33;;;;;;;5.28;3.90;;;39.50;36.20;;;;;;6119045;23;20018;-84
2023/06/11 11:40:07;;;;;;;4.80;4.28;;;39.50;37.10;;;;;;6096070;23;20030;-84
2023/06/11 11:42:46;;;;;;;5.50;4.60;;;39.80;37.10;;;;;;6122384;23;20006;-85
2023/06/11 11:45:13;;;;;;;7.95;5.18;;;39.90;36.80;;;;;;6133603;23;20506;-84
2023/06/11 11:47:41;;;;;;;4.72;4.25;;;39.80;35.50;;;;;;6116083;23;20441;-82
2023/06/11 11:50:17;;;;;;;5.03;4.10;;;39.90;36.50;;;;;;6111917;23;20377;-83
2023/06/11 11:52:45;;;;;;;4.95;4.53;;;40.40;35.30;;;;;;6109871;23;20025;-83
2023/06/11 11:55:12;;;;;;;6.55;4.45;;;40.20;35.50;;;;;;6087841;23;20048;-83
2023/06/11 11:57:40;;;;;;;5.35;4.85;;;40.50;35.70;;;;;;6106053;23;20010;-83
2023/06/11 12:00:07;;;;;;;3.80;3.50;;;40.90;36.00;;;;;;6113321;23;20044;-83
2023/06/11 12:02:32;;;;;;;4.50;4.10;;;41.10;35.80;;;;;;6091419;23;20010;-83
2023/06/11 12:04:59;;;;;;;5.13;4.70;;;41.10;35.20;;;;;;6086632;23;20061;-83
2023/06/11 12:07:25;;;;;;;8.52;4.13;;;41.20;36.80;;;;;;6111145;23;20436;-84
2023/06/11 12:09:51;;;;;;;4.75;4.35;;;41.30;35.60;;;;;;6110724;23;20014;-83
2023/06/11 12:12:16;;;;;;;4.85;4.07;;;41.90;34.50;;;;;;6110406;23;20149;-84
2023/06/11 12:14:42;;;;;;;7.15;4.60;;;42.20;36.10;;;;;;6087866;23;20365;-84
2023/06/11 12:17:10;;;;;;;8.73;4.45;;;42.60;33.80;;;;;;6090424;23;20456;-84
2023/06/11 12:19:35;;;;;;;7.03;4.68;;;42.20;32.20;;;;;;6091453;23;20017;-82
2023/06/11 12:22:03;;;;;;;5.95;4.32;;;42.40;32.80;;;;;;6094301;23;20348;-82
2023/06/11 12:24:29;;;;;;;5.22;3.88;;;42.70;32.90;;;;;;6091182;23;20405;-82
2023/06/11 12:26:54;;;;;;;8.13;4.80;;;42.90;34.10;;;;;;6086692;23;20010;-83
2023/06/11 12:29:20;;;;;;;5.90;4.70;;;43.30;33.70;;;;;;6108083;23;20449;-84
2023/06/11 12:31:47;;;;;;;7.32;4.97;;;43.50;33.40;;;;;;6110201;23;20018;-83
2023/06/11 12:34:15;;;;;;;5.88;4.40;;;43.30;33.60;;;;;;6083177;23;20041;-83
2023/06/11 12:36:44;;;;;;;5.85;4.53;;;43.70;33.80;;;;;;6090102;23;20041;-85
2023/06/11 12:39:10;;;;;;;4.95;4.53;;;44.00;33.00;;;;;;6111741;23;20050;-84
2023/06/11 12:41:35;;;;;;;6.50;4.75;;;44.20;32.40;;;;;;6088461;23;20016;-84
2023/06/11 12:44:01;;;;;;;4.60;4.20;;;44.00;32.10;;;;;;6112414;23;20025;-84
2023/06/11 12:46:27;;;;;;;4.90;4.47;;;43.90;32.40;;;;;;6121018;23;20006;-83
2023/06/11 12:48:53;;;;;;;5.60;4.93;;;43.70;32.10;;;;;;6131077;23;20038;-83
2023/06/11 12:51:19;;;;;;;5.22;4.43;;;43.50;31.70;;;;;;6126080;23;20097;-82
2023/06/11 12:53:44;;;;;;;4.60;4.20;;;43.40;32.30;;;;;;6141412;23;20029;-80
2023/06/11 12:56:10;;;;;;;5.82;4.50;;;43.40;31.30;;;;;;6091460;23;20014;-80
2023/06/11 12:58:36;;;;;;;4.65;4.25;;;43.00;31.30;;;;;;6142143;23;20021;-81
2023/06/11 13:01:02;;;;;;;5.78;4.47;;;43.30;32.80;;;;;;6117953;23;20030;-80
2023/06/11 13:03:28;;;;;;;5.05;4.50;;;43.50;32.80;;;;;;6116618;23;20021;-82
2023/06/11 13:05:53;;;;;;;6.10;4.20;;;43.90;31.40;;;;;;6116818;23;20085;-80
2023/06/11 13:08:19;;;;;;;8.10;4.80;;;43.80;31.10;;;;;;6087758;23;20060;-79
2023/06/11 13:10:44;;;;;;;4.95;4.53;;;43.90;31.10;;;;;;6114985;23;20017;-81
2023/06/11 13:13:10;;;;;;;5.93;4.95;;;44.10;31.20;;;;;;6117557;23;20073;-82
2023/06/11 13:15:36;;;;;;;4.80;4.35;;;44.20;31.10;;;;;;6141693;23;20104;-82